createdAt,value
2024-02-13T00:00:11.828Z,3.97
2024-02-13T00:02:42.715Z,3.88
2024-02-13T00:05:10.930Z,3.65
2024-02-13T00:07:40.283Z,3.85
2024-02-13T00:10:11.922Z,4.07
2024-02-13T00:12:42.417Z,3.88
2024-02-13T00:15:15.972Z,3.95
2024-02-13T00:17:45.920Z,3.83
2024-02-13T00:20:15.490Z,4.10
2024-02-13T00:22:42.764Z,4.93
2024-02-13T00:25:13.565Z,5.10
2024-02-13T00:27:41.038Z,5.72
2024-02-13T00:30:10.430Z,5.32
2024-02-13T00:32:41.404Z,5.80
2024-02-13T00:35:10.056Z,6.00
2024-02-13T00:37:38.252Z,5.80
2024-02-13T00:40:06.698Z,5.20
2024-02-13T00:42:34.298Z,5.55
2024-02-13T00:45:01.949Z,5.45
2024-02-13T00:47:30.409Z,5.70
2024-02-13T00:49:58.365Z,5.50
2024-02-13T00:52:29.398Z,5.10
2024-02-13T00:54:57.302Z,5.00
2024-02-13T00:57:25.649Z,5.32
2024-02-13T00:59:53.442Z,5.30
2024-02-13T01:02:21.204Z,5.15
2024-02-13T01:04:49.661Z,5.00
2024-02-13T01:07:18.638Z,5.05
2024-02-13T01:12:13.331Z,4.90
2024-02-13T01:14:40.648Z,5.10
2024-02-13T01:17:08.091Z,4.78
2024-02-13T01:19:35.342Z,5.20
2024-02-13T01:22:02.777Z,4.90
2024-02-13T01:24:32.842Z,5.43
2024-02-13T01:27:00.302Z,4.88
2024-02-13T01:29:27.542Z,5.82
2024-02-13T01:31:55.063Z,5.30
2024-02-13T01:34:22.873Z,5.75
2024-02-13T01:36:50.235Z,5.38
2024-02-13T01:39:17.465Z,5.35
2024-02-13T01:41:44.693Z,5.55
2024-02-13T01:44:12.014Z,5.53
2024-02-13T01:46:40.860Z,6.78
2024-02-13T01:49:10.284Z,7.07
2024-02-13T01:51:38.889Z,6.88
2024-02-13T01:54:07.454Z,7.95
2024-02-13T01:56:36.042Z,8.60
2024-02-13T01:59:05.098Z,7.70
2024-02-13T02:01:33.608Z,7.75
2024-02-13T02:04:01.438Z,8.65
2024-02-13T02:06:28.793Z,7.45
2024-02-13T02:08:57.935Z,8.77
2024-02-13T02:13:54.121Z,7.30
2024-02-13T02:16:21.480Z,7.28
2024-02-13T02:18:48.928Z,8.75
2024-02-13T02:21:16.238Z,8.20
2024-02-13T02:23:43.561Z,8.70
2024-02-13T02:26:11.933Z,10.32
2024-02-13T02:28:39.276Z,10.30
2024-02-13T02:31:06.561Z,10.25
2024-02-13T02:33:33.976Z,10.65
2024-02-13T02:36:01.412Z,11.30
2024-02-13T02:38:28.894Z,12.18
2024-02-13T02:40:56.179Z,11.20
2024-02-13T02:43:23.471Z,11.82
2024-02-13T02:45:50.712Z,12.73
2024-02-13T02:48:19.656Z,13.93
2024-02-13T02:53:18.302Z,12.27
2024-02-13T02:55:47.257Z,12.18
2024-02-13T02:58:14.902Z,12.15
2024-02-13T03:00:42.925Z,12.85
2024-02-13T03:03:10.188Z,14.07
2024-02-13T03:05:37.605Z,12.93
2024-02-13T03:08:05.920Z,12.98
2024-02-13T03:10:33.146Z,12.30
2024-02-13T03:13:00.321Z,13.32
2024-02-13T03:15:28.411Z,12.85
2024-02-13T03:17:55.798Z,13.18
2024-02-13T03:20:23.094Z,13.38
2024-02-13T03:22:50.404Z,13.15
2024-02-13T03:25:17.728Z,12.02
2024-02-13T03:27:44.974Z,11.75
2024-02-13T03:30:12.565Z,12.70
2024-02-13T03:32:39.951Z,12.13
2024-02-13T03:35:07.683Z,13.32
2024-02-13T03:37:34.884Z,11.05
2024-02-13T03:40:06.933Z,11.55
2024-02-13T03:42:34.913Z,11.63
2024-02-13T03:45:02.096Z,12.18
2024-02-13T03:47:29.429Z,11.82
2024-02-13T03:49:57.500Z,12.15
2024-02-13T03:52:26.278Z,11.40
2024-02-13T03:54:53.539Z,13.13
2024-02-13T03:57:20.772Z,12.07
2024-02-13T03:59:47.976Z,12.23
2024-02-13T04:02:15.782Z,11.35
2024-02-13T04:04:43.100Z,11.98
2024-02-13T04:07:10.325Z,11.68
2024-02-13T04:09:37.783Z,11.82
2024-02-13T04:12:10.486Z,11.57
2024-02-13T04:14:41.155Z,11.50
2024-02-13T04:17:08.392Z,12.40
2024-02-13T04:19:35.744Z,11.38
2024-02-13T04:22:03.056Z,12.38
2024-02-13T04:24:30.524Z,11.88
2024-02-13T04:26:57.826Z,12.73
2024-02-13T04:29:25.163Z,11.98
2024-02-13T04:31:52.773Z,11.18
2024-02-13T04:34:20.122Z,12.25
2024-02-13T04:36:48.469Z,11.57
2024-02-13T04:39:16.582Z,11.68
2024-02-13T04:41:45.919Z,11.75
2024-02-13T04:44:14.020Z,12.35
2024-02-13T04:46:42.523Z,11.48
2024-02-13T04:49:10.843Z,12.32
2024-02-13T04:51:38.966Z,11.23
2024-02-13T04:54:06.395Z,11.20
2024-02-13T04:56:34.824Z,11.80
2024-02-13T04:59:03.751Z,11.38
2024-02-13T05:01:31.408Z,11.82
2024-02-13T05:04:17.418Z,11.38
2024-02-13T05:07:03.722Z,11.18
2024-02-13T05:09:31.031Z,11.50
2024-02-13T05:11:58.372Z,11.60
2024-02-13T05:14:25.769Z,11.57
2024-02-13T05:16:53.064Z,11.63
2024-02-13T05:19:22.437Z,10.80
2024-02-13T05:21:51.985Z,10.88
2024-02-13T05:24:19.584Z,11.43
2024-02-13T05:26:47.141Z,11.27
2024-02-13T05:29:15.098Z,11.73
2024-02-13T05:31:42.516Z,11.32
2024-02-13T05:34:11.408Z,11.48
2024-02-13T05:36:38.727Z,11.43
2024-02-13T05:39:05.967Z,11.13
2024-02-13T05:41:33.222Z,10.63
2024-02-13T05:44:04.107Z,10.13
2024-02-13T05:46:31.817Z,10.57
2024-02-13T05:49:01.485Z,10.85
2024-02-13T05:51:28.985Z,11.10
2024-02-13T05:53:56.556Z,11.23
2024-02-13T05:56:27.942Z,10.88
2024-02-13T05:59:01.834Z,10.55
2024-02-13T06:01:29.386Z,11.68
2024-02-13T06:03:59.410Z,10.93
2024-02-13T06:06:27.086Z,11.07
2024-02-13T06:08:54.726Z,11.60
2024-02-13T06:11:22.505Z,11.23
2024-02-13T06:13:50.803Z,10.93
2024-02-13T06:16:18.954Z,10.70
2024-02-13T06:18:49.490Z,11.60
2024-02-13T06:21:22.537Z,11.20
2024-02-13T06:23:52.437Z,10.82
2024-02-13T06:26:20.172Z,11.95
2024-02-13T06:28:47.522Z,11.57
2024-02-13T06:31:15.416Z,10.73
2024-02-13T06:33:42.858Z,11.15
2024-02-13T06:36:11.407Z,10.27
2024-02-13T06:38:38.734Z,10.70
2024-02-13T06:41:11.626Z,11.07
2024-02-13T06:43:38.975Z,10.38
2024-02-13T06:46:06.187Z,11.00
2024-02-13T06:48:34.030Z,11.27
2024-02-13T06:51:02.070Z,9.65
2024-02-13T06:53:29.389Z,9.63
2024-02-13T06:55:56.743Z,9.85
2024-02-13T06:58:24.053Z,9.90
2024-02-13T07:00:52.685Z,10.75
2024-02-13T07:03:20.979Z,10.73
2024-02-13T07:05:48.399Z,8.57
2024-02-13T07:08:16.284Z,9.02
2024-02-13T07:10:43.703Z,8.80
2024-02-13T07:13:10.922Z,8.35
2024-02-13T07:15:38.964Z,9.07
2024-02-13T07:18:07.892Z,8.60
2024-02-13T07:20:36.096Z,8.45
2024-02-13T07:23:04.131Z,6.85
2024-02-13T07:25:31.549Z,7.55
2024-02-13T07:27:58.964Z,6.20
2024-02-13T07:30:27.360Z,6.68
2024-02-13T07:32:56.010Z,7.93
2024-02-13T07:35:23.924Z,7.95
2024-02-13T07:37:51.328Z,6.63
2024-02-13T07:40:19.242Z,6.68
2024-02-13T07:42:46.971Z,6.72
2024-02-13T07:45:14.300Z,6.43
2024-02-13T07:47:42.778Z,6.50
2024-02-13T07:50:11.278Z,5.97
2024-02-13T07:52:39.000Z,5.95
2024-02-13T07:55:07.431Z,6.20
2024-02-13T07:57:36.257Z,4.95
2024-02-13T08:00:05.439Z,4.97
2024-02-13T08:02:33.205Z,5.15
2024-02-13T08:05:01.051Z,5.00
2024-02-13T08:07:29.572Z,5.88
2024-02-13T08:09:57.061Z,4.57
2024-02-13T08:12:26.002Z,4.85
2024-02-13T08:15:02.149Z,4.35
2024-02-13T08:17:31.058Z,4.57
2024-02-13T08:22:31.109Z,3.72
2024-02-13T09:48:35.445Z,3.50
2024-02-13T09:51:11.054Z,4.10
2024-02-13T09:53:42.213Z,3.90
2024-02-13T09:56:15.151Z,3.15
2024-02-13T09:58:43.854Z,3.45
2024-02-13T10:01:11.092Z,3.42
2024-02-13T10:03:39.803Z,3.83
2024-02-13T10:06:07.812Z,3.13
2024-02-13T10:08:39.106Z,3.20
2024-02-13T10:11:07.369Z,2.90
2024-02-13T10:13:48.429Z,3.33
2024-02-13T11:30:21.285Z,2.53
2024-02-13T11:33:04.179Z,2.42
2024-02-13T11:35:34.479Z,3.22
2024-02-13T11:38:11.147Z,2.70
2024-02-13T12:15:55.830Z,2.50
2024-02-13T12:18:23.576Z,2.60
2024-02-13T12:20:51.781Z,2.25
2024-02-13T12:23:19.475Z,2.67
2024-02-13T12:25:47.838Z,1.95
2024-02-13T12:28:15.469Z,2.30
2024-02-13T12:30:47.593Z,1.80
2024-02-13T12:33:22.432Z,1.73
2024-02-13T12:57:32.547Z,2.67
2024-02-13T13:18:59.263Z,2.55
2024-02-13T13:21:27.561Z,2.33
2024-02-13T13:23:55.765Z,2.70
2024-02-13T13:26:33.735Z,2.20
2024-02-13T13:29:21.799Z,2.60
2024-02-13T13:31:50.473Z,2.38
2024-02-13T13:34:21.867Z,2.20
2024-02-13T13:36:51.097Z,1.92
2024-02-13T13:44:14.940Z,2.20
2024-02-13T13:46:42.756Z,2.33
2024-02-13T13:49:10.961Z,1.92
2024-02-13T13:51:40.787Z,1.60
2024-02-13T13:54:08.251Z,1.60
2024-02-13T15:04:01.730Z,1.25
2024-02-13T15:06:30.927Z,1.00
2024-02-13T15:08:58.354Z,1.33
2024-02-13T15:11:25.671Z,2.08
2024-02-13T15:13:54.685Z,1.05
2024-02-13T15:16:22.525Z,0.90
2024-02-13T15:18:50.729Z,0.90
2024-02-13T15:21:18.090Z,1.10
2024-02-13T15:23:47.200Z,1.10
2024-02-13T15:26:14.477Z,1.20
2024-02-13T15:28:42.392Z,1.40
2024-02-13T15:31:16.960Z,1.35
2024-02-13T17:17:10.336Z,1.30
2024-02-13T17:19:37.653Z,1.30
2024-02-13T17:22:05.006Z,1.50
2024-02-13T17:24:32.286Z,1.30
2024-02-13T17:27:00.087Z,1.20
2024-02-13T17:29:27.495Z,1.95
2024-02-13T17:31:54.806Z,1.90
2024-02-13T17:34:23.286Z,2.70
2024-02-13T17:36:50.810Z,1.98
2024-02-13T17:39:18.302Z,2.20
2024-02-13T17:41:47.231Z,2.13
2024-02-13T17:46:41.965Z,2.60
2024-02-13T17:49:10.349Z,3.10
2024-02-13T17:51:39.046Z,2.95
2024-02-13T17:54:06.666Z,2.75
2024-02-13T17:56:34.061Z,2.53
2024-02-13T17:59:02.348Z,3.20
2024-02-13T18:01:29.906Z,3.90
2024-02-13T18:03:57.758Z,3.97
2024-02-13T19:13:20.956Z,3.63
2024-02-13T19:15:48.222Z,3.88
2024-02-13T19:18:17.521Z,4.05
2024-02-13T19:20:44.931Z,3.85
2024-02-13T19:23:12.365Z,3.05
2024-02-13T19:25:39.625Z,3.55
2024-02-13T19:28:08.474Z,3.53
2024-02-13T19:30:36.512Z,3.65
2024-02-13T19:33:05.370Z,3.25
2024-02-13T19:38:00.807Z,3.22
2024-02-13T19:40:28.003Z,3.03
2024-02-13T19:42:55.338Z,2.95
2024-02-13T19:45:22.584Z,3.50
2024-02-13T19:47:49.918Z,3.20
2024-02-13T19:50:17.546Z,3.50
2024-02-13T19:52:45.296Z,3.30
2024-02-13T19:55:12.649Z,2.92
2024-02-13T19:57:40.320Z,3.10
2024-02-13T20:00:10.607Z,3.05
2024-02-13T20:02:38.103Z,3.70
2024-02-13T20:05:06.606Z,2.58
2024-02-13T20:07:34.624Z,3.13
2024-02-13T20:10:01.833Z,3.40
2024-02-13T20:12:29.050Z,3.13
2024-02-13T20:14:57.246Z,2.72
2024-02-13T20:17:24.480Z,2.63
2024-02-13T20:19:53.182Z,2.90
2024-02-13T20:22:20.658Z,2.33
2024-02-13T20:24:48.619Z,2.58
2024-02-13T20:27:15.830Z,2.42
2024-02-13T20:29:43.856Z,2.25
2024-02-13T20:32:11.279Z,3.30
2024-02-13T20:34:38.723Z,1.90
2024-02-13T20:37:06.063Z,2.65
2024-02-13T20:39:33.955Z,2.85
2024-02-13T20:42:03.516Z,2.72
2024-02-13T20:44:31.324Z,2.42
2024-02-13T20:46:58.538Z,2.35
2024-02-13T20:49:25.965Z,2.58
2024-02-13T20:51:53.392Z,2.70
2024-02-13T20:54:20.634Z,2.78
2024-02-13T20:56:48.491Z,2.63
2024-02-13T20:59:16.082Z,2.83
2024-02-13T21:01:43.588Z,2.80
2024-02-13T21:04:11.187Z,3.03
2024-02-13T21:06:42.325Z,3.00
2024-02-13T21:09:13.008Z,3.63
2024-02-13T21:11:41.655Z,3.20
2024-02-13T21:14:09.019Z,2.47
2024-02-13T21:16:36.456Z,2.90
2024-02-13T21:19:03.823Z,2.97
2024-02-13T21:21:50.136Z,2.90
2024-02-13T21:24:17.355Z,3.20
2024-02-13T21:26:44.585Z,3.00
2024-02-13T21:29:11.862Z,3.20
2024-02-13T21:31:40.559Z,3.20
2024-02-13T21:34:07.930Z,2.65
2024-02-13T21:36:36.273Z,3.10
2024-02-13T21:39:09.079Z,2.63
2024-02-13T21:41:37.193Z,2.60
2024-02-13T21:44:05.009Z,3.63
2024-02-13T21:46:32.726Z,2.53
2024-02-13T21:49:00.434Z,2.90
2024-02-13T21:51:27.908Z,2.80
2024-02-13T21:53:55.475Z,2.75
2024-02-13T21:56:23.783Z,2.75
2024-02-13T21:58:52.430Z,2.88
2024-02-13T22:01:19.720Z,2.90
2024-02-13T22:03:47.055Z,2.90
2024-02-13T22:06:14.869Z,3.03
2024-02-13T22:08:43.611Z,3.15
2024-02-13T22:11:11.001Z,3.03
2024-02-13T22:13:38.201Z,2.78
2024-02-13T22:16:05.643Z,3.30
2024-02-13T22:18:32.984Z,3.08
2024-02-13T22:21:00.321Z,3.20
2024-02-13T22:23:30.516Z,3.22
2024-02-13T22:26:03.731Z,2.20
2024-02-13T22:28:30.936Z,3.47
2024-02-13T22:30:58.423Z,3.58
2024-02-13T22:33:26.962Z,3.50
2024-02-13T22:35:55.413Z,3.10
2024-02-13T22:38:22.777Z,3.35
2024-02-13T22:40:50.032Z,3.70
2024-02-13T22:43:17.311Z,2.83
2024-02-13T22:45:44.498Z,3.33
2024-02-13T22:48:11.773Z,2.85
2024-02-13T22:50:39.071Z,3.33
2024-02-13T22:53:06.315Z,3.50
2024-02-13T22:55:33.527Z,3.28
2024-02-13T22:58:00.802Z,3.70
2024-02-13T23:00:46.835Z,2.80
2024-02-13T23:03:14.588Z,3.30
2024-02-13T23:05:48.018Z,4.13
2024-02-13T23:08:16.449Z,3.80
2024-02-13T23:10:44.065Z,3.10
2024-02-13T23:13:13.739Z,2.95
2024-02-13T23:15:41.380Z,3.35
2024-02-13T23:18:10.092Z,3.20
2024-02-13T23:20:37.616Z,3.08
2024-02-13T23:23:05.125Z,3.38
2024-02-13T23:25:32.418Z,3.30
2024-02-13T23:28:00.850Z,2.55
2024-02-13T23:32:56.142Z,3.10
2024-02-13T23:35:23.542Z,3.70
2024-02-13T23:37:50.791Z,3.20
2024-02-13T23:40:19.469Z,3.70
2024-02-13T23:42:50.904Z,3.30
2024-02-13T23:45:18.247Z,3.97
2024-02-13T23:47:45.598Z,4.32
2024-02-13T23:50:13.733Z,4.45
2024-02-13T23:52:42.295Z,3.80
2024-02-13T23:55:10.605Z,4.82
2024-02-13T23:57:46.012Z,3.40
